Alderwood Manor, WA

6:54 PM PDT on October 31, 2014 (GMT -0700)
Snohomish County | Change Station
CLOSE
Current Station
Airport
Location: Everett,
Elevation: 604 ft
Nearby Weather Stations

Elev 604 ft 47.91 °N, 122.28 °W | Updated 1 hour ago

Overcast
Overcast
49 °F
Feels Like 49 °F
N
4
Wind Variable Wind from NNE

Today
High -- | Low -- °F
--% Chance of Precip.
Yesterday
High -- | Low -- °F
Precip. -- in
7:52 AM 5:52 PM
First Quarter, 61% visible
Pressure 29.86 in
Visibility 7.0 miles
Clouds Mostly Cloudy 900 ft
Mostly Cloudy 1400 ft
Dew Point 48 °F
Humidity 97%
Rainfall 0.77 in
Snow Depth Not available.
UV 0 out of 12
Pollen .30 out of 12
Air Quality Not available.
Flu Activity Not available.
METAR KPAE 010053Z 02003KT 7SM BKN009 BKN014 09/09 A2986 RMK AO2 RAB27E51 SLP112 P0000 T00940089

More Conditions Fewer Conditions

Pressure 29.86 in
Visibility 7.0 miles
Clouds Mostly Cloudy 900 ft
Mostly Cloudy 1400 ft
Dew Point 48 °F
Humidity 97%
Rainfall 0.77 in
Snow Depth Not available.
UV 0 out of 12
Pollen .30 out of 12
Air Quality Not available.
Flu Activity Not available.
METAR KPAE 010053Z 02003KT 7SM BKN009 BKN014 09/09 A2986 RMK AO2 RAB27E51 SLP112 P0000 T00940089

More Conditions Fewer Conditions

10-Day Weather Forecast

Almanac

Astronomy

Oct. 31, 2014 Rise Set
Actual Time
Civil Twilight
Nautical Twilight
Astronomical Twilight
Moon
Length of Visible Light
Length of Day
Tomorrow will be .
, % of the Moon is Illuminated

Today's Extremes

State Highs State Lows

Community

WunderPhotos

Upload Photos

1,766,810 photos uploaded!

WunderBlogs® & News

Nearby

Air Quality

  Air Quality AQ Index Pollutant
Not available.

Snow Depth

Station Depth Elevation

Earthquake Activity

City Distance Mag. Time & Date
Minimum magnitude displayed is 2.5.

Coastal Water Temperatures

Place Temperature

Nearby Weather Stations